createdAt,value
2019-01-12T00:00:37.433Z,10.30
2019-01-12T00:03:06.184Z,10.27
2019-01-12T00:05:34.914Z,10.90
2019-01-12T00:08:03.941Z,10.87
2019-01-12T00:10:32.393Z,10.80
2019-01-12T00:13:00.872Z,11.60
2019-01-12T00:15:29.320Z,12.13
2019-01-12T00:17:57.836Z,12.63
2019-01-12T00:20:26.441Z,12.97
2019-01-12T00:22:54.894Z,13.50
2019-01-12T00:25:23.333Z,13.30
2019-01-12T00:27:51.801Z,13.73
2019-01-12T00:30:20.362Z,13.83
2019-01-12T00:32:48.833Z,13.37
2019-01-12T00:35:17.268Z,14.43
2019-01-12T00:37:45.750Z,14.20
2019-01-12T00:40:14.420Z,13.70
2019-01-12T00:42:42.875Z,12.50
2019-01-12T00:45:13.265Z,12.33
2019-01-12T00:47:41.788Z,12.57
2019-01-12T00:50:16.291Z,11.63
2019-01-12T00:52:44.743Z,13.20
2019-01-12T00:55:13.421Z,12.53
2019-01-12T00:57:41.876Z,13.57
2019-01-12T01:00:13.619Z,11.87
2019-01-12T01:02:42.100Z,12.37
2019-01-12T01:05:10.775Z,13.23
2019-01-12T01:07:39.573Z,12.17
2019-01-12T01:10:11.670Z,12.70
2019-01-12T01:12:40.125Z,12.53
2019-01-12T01:15:10.600Z,12.53
2019-01-12T01:17:39.055Z,12.93
2019-01-12T01:20:10.136Z,14.03
2019-01-12T01:22:38.596Z,14.67
2019-01-12T01:25:08.473Z,14.50
2019-01-12T01:27:37.051Z,13.83
2019-01-12T01:30:14.887Z,14.63
2019-01-12T01:32:43.328Z,14.13
2019-01-12T01:35:12.226Z,14.10
2019-01-12T01:37:40.814Z,15.73
2019-01-12T01:40:12.211Z,15.17
2019-01-12T01:42:40.916Z,15.10
2019-01-12T01:45:12.558Z,13.73
2019-01-12T01:47:41.070Z,13.47
2019-01-12T01:50:13.161Z,13.53
2019-01-12T01:52:41.674Z,14.33
2019-01-12T01:55:10.278Z,13.97
2019-01-12T01:57:38.796Z,14.37
2019-01-12T02:00:15.638Z,14.17
2019-01-12T02:02:44.151Z,14.17
2019-01-12T02:05:12.974Z,14.43
2019-01-12T02:07:41.563Z,14.37
2019-01-12T02:10:16.067Z,14.50
2019-01-12T02:12:44.601Z,14.67
2019-01-12T02:15:15.000Z,14.40
2019-01-12T02:17:43.572Z,14.07
2019-01-12T02:20:12.377Z,14.13
2019-01-12T02:22:40.816Z,13.43
2019-01-12T02:25:10.967Z,12.87
2019-01-12T02:27:39.437Z,14.53
2019-01-12T02:30:19.893Z,13.93
2019-01-12T02:32:48.348Z,14.10
2019-01-12T02:35:16.787Z,13.60
2019-01-12T02:37:45.255Z,13.47
2019-01-12T02:40:14.002Z,14.20
2019-01-12T02:42:42.536Z,14.90
2019-01-12T02:45:13.120Z,14.13
2019-01-12T02:47:41.575Z,13.77
2019-01-12T02:50:12.266Z,13.43
2019-01-12T02:52:40.798Z,13.37
2019-01-12T02:55:10.181Z,13.73
2019-01-12T02:57:38.623Z,11.87
2019-01-12T03:00:15.857Z,11.60
2019-01-12T03:02:44.315Z,11.07
2019-01-12T03:05:12.924Z,10.83
2019-01-12T03:07:41.556Z,10.83
2019-01-12T03:10:12.740Z,11.00
2019-01-12T03:12:41.185Z,11.03
2019-01-12T03:15:14.465Z,11.53
2019-01-12T03:17:43.098Z,11.13
2019-01-12T03:20:14.499Z,12.17
2019-01-12T03:22:43.033Z,9.80
2019-01-12T03:25:17.985Z,11.27
2019-01-12T03:27:41.886Z,11.43
2019-01-12T03:30:15.606Z,11.43
2019-01-12T03:32:44.115Z,10.63
2019-01-12T03:35:12.929Z,10.07
2019-01-12T03:37:41.428Z,10.63
2019-01-12T03:40:13.104Z,10.70
2019-01-12T03:42:41.621Z,10.30
2019-01-12T03:45:12.619Z,11.10
2019-01-12T03:47:41.241Z,10.53
2019-01-12T03:50:12.211Z,10.50
2019-01-12T03:52:40.715Z,10.43
2019-01-12T03:55:09.708Z,11.17
2019-01-12T03:57:38.228Z,10.43
2019-01-12T04:00:09.753Z,10.00
2019-01-12T04:02:39.862Z,11.60
2019-01-12T04:05:08.351Z,11.53
2019-01-12T04:07:36.811Z,10.20
2019-01-12T04:10:08.297Z,11.27
2019-01-12T04:12:36.761Z,11.33
2019-01-12T04:15:07.936Z,11.83
2019-01-12T04:17:36.459Z,11.63
2019-01-12T04:20:08.449Z,12.00
2019-01-12T04:22:36.907Z,13.57
2019-01-12T04:25:06.087Z,13.03
2019-01-12T04:27:34.628Z,13.13
2019-01-12T04:30:03.436Z,14.37
2019-01-12T04:32:31.877Z,13.70
2019-01-12T04:35:00.333Z,14.33
2019-01-12T04:37:29.131Z,14.07
2019-01-12T04:39:57.596Z,14.47
2019-01-12T04:42:26.032Z,14.53
2019-01-12T04:44:54.492Z,14.27
2019-01-12T04:47:22.927Z,12.23
2019-01-12T04:49:51.364Z,12.97
2019-01-12T04:52:19.901Z,12.80
2019-01-12T04:54:48.337Z,12.50
2019-01-12T04:57:16.822Z,12.50
2019-01-12T04:59:50.994Z,12.60
2019-01-12T05:02:19.449Z,11.83
2019-01-12T05:04:47.896Z,11.53
2019-01-12T05:07:20.027Z,10.97
2019-01-12T05:09:48.473Z,11.00
2019-01-12T05:12:20.611Z,10.50
2019-01-12T05:14:49.055Z,9.30
2019-01-12T05:17:17.656Z,9.30
2019-01-12T05:19:46.147Z,9.37
2019-01-12T05:22:14.601Z,9.73
2019-01-12T05:24:43.141Z,11.23
2019-01-12T05:27:11.866Z,11.13
2019-01-12T05:29:40.397Z,10.70
2019-01-12T05:32:08.917Z,10.73
2019-01-12T05:34:37.372Z,10.90
2019-01-12T05:37:05.815Z,11.83
2019-01-12T05:39:35.889Z,11.77
2019-01-12T05:42:04.464Z,12.20
2019-01-12T05:44:38.529Z,12.13
2019-01-12T05:47:06.986Z,12.43
2019-01-12T05:49:39.071Z,12.47
2019-01-12T05:52:07.580Z,12.33
2019-01-12T05:54:36.042Z,13.00
2019-01-12T05:57:04.544Z,15.23
2019-01-12T05:59:33.077Z,14.07
2019-01-12T06:02:01.618Z,14.87
2019-01-12T06:04:30.057Z,15.63
2019-01-12T06:06:58.519Z,16.17
2019-01-12T06:09:26.969Z,15.63
2019-01-12T06:11:55.431Z,14.83
2019-01-12T06:14:23.877Z,16.17
2019-01-12T06:16:52.440Z,15.80
2019-01-12T06:19:20.885Z,15.30
2019-01-12T06:21:49.434Z,14.63
2019-01-12T06:24:18.083Z,15.13
2019-01-12T06:26:46.575Z,15.97
2019-01-12T06:29:15.045Z,16.20
2019-01-12T06:31:43.617Z,15.77
2019-01-12T06:34:12.117Z,14.70
2019-01-12T06:36:40.581Z,15.67
2019-01-12T06:39:11.333Z,16.23
2019-01-12T06:41:39.850Z,17.20
2019-01-12T06:44:15.817Z,17.43
2019-01-12T06:46:44.268Z,17.20
2019-01-12T06:49:13.079Z,19.00
2019-01-12T06:51:41.624Z,19.67
2019-01-12T06:54:10.109Z,19.70
2019-01-12T06:56:38.553Z,21.60
2019-01-12T06:59:07.018Z,19.83
2019-01-12T07:01:35.478Z,21.23
2019-01-12T07:04:05.186Z,23.53
2019-01-12T07:06:33.651Z,21.80
2019-01-12T07:09:02.163Z,22.17
2019-01-12T07:11:30.621Z,22.13
2019-01-12T07:13:59.080Z,24.00
2019-01-12T07:16:29.081Z,22.30
2019-01-12T07:18:57.549Z,22.53
2019-01-12T07:21:25.997Z,24.80
2019-01-12T07:23:54.455Z,26.57
2019-01-12T07:26:22.928Z,27.53
2019-01-12T07:28:51.364Z,27.67
2019-01-12T07:31:19.823Z,27.07
2019-01-12T07:33:48.272Z,28.53
2019-01-12T07:36:16.816Z,28.03
2019-01-12T07:38:45.257Z,27.00
2019-01-12T07:41:13.717Z,27.80
2019-01-12T07:43:45.264Z,28.33
2019-01-12T07:46:13.833Z,30.00
2019-01-12T07:48:42.280Z,28.17
2019-01-12T07:51:10.740Z,28.67
2019-01-12T07:53:39.189Z,28.63
2019-01-12T07:56:07.716Z,27.47
2019-01-12T07:58:36.525Z,27.40
2019-01-12T08:01:05.057Z,26.90
2019-01-12T08:03:33.557Z,27.40
2019-01-12T08:06:02.088Z,27.87
2019-01-12T08:08:30.609Z,26.33
2019-01-12T08:10:59.447Z,23.77
2019-01-12T08:13:28.050Z,26.63
2019-01-12T08:15:56.565Z,25.67
2019-01-12T08:18:25.025Z,25.17
2019-01-12T08:20:53.492Z,22.10
2019-01-12T08:23:21.971Z,22.40
2019-01-12T08:25:50.498Z,22.63
2019-01-12T08:28:18.964Z,19.43
2019-01-12T08:30:47.432Z,21.03
2019-01-12T08:33:18.939Z,19.37
2019-01-12T08:35:47.397Z,16.97
2019-01-12T08:38:18.936Z,17.43
2019-01-12T08:40:47.467Z,20.07
2019-01-12T08:43:20.359Z,20.60
2019-01-12T08:45:48.796Z,19.47
2019-01-12T08:48:17.232Z,19.77
2019-01-12T08:50:45.693Z,19.90
2019-01-12T08:53:14.154Z,19.03
2019-01-12T08:55:42.592Z,19.50
2019-01-12T08:58:13.900Z,16.67
2019-01-12T09:00:42.368Z,19.40
2019-01-12T09:03:10.806Z,18.27
2019-01-12T09:05:39.266Z,17.57
2019-01-12T09:08:07.864Z,19.23
2019-01-12T09:10:37.866Z,18.63
2019-01-12T09:13:06.304Z,16.40
2019-01-12T09:15:36.495Z,18.07
2019-01-12T09:18:05.073Z,17.73
2019-01-12T09:20:33.544Z,18.10
2019-01-12T09:23:01.990Z,17.57
2019-01-12T09:25:30.449Z,18.80
2019-01-12T09:27:59.340Z,16.77
2019-01-12T09:30:27.971Z,16.77
2019-01-12T09:32:56.414Z,15.97
2019-01-12T09:35:24.954Z,15.63
2019-01-12T09:37:53.384Z,13.87
2019-01-12T09:40:21.960Z,14.50
2019-01-12T09:42:50.789Z,12.03
2019-01-12T09:45:19.411Z,14.63
2019-01-12T09:47:48.050Z,14.80
2019-01-12T09:50:20.050Z,15.23
2019-01-12T09:54:41.919Z,14.93
2019-01-12T09:57:10.381Z,15.27
2019-01-12T09:59:38.836Z,14.83
2019-01-12T10:02:07.296Z,14.87
2019-01-12T10:04:35.877Z,14.83
2019-01-12T10:07:04.592Z,14.80
2019-01-12T10:09:33.150Z,14.80
2019-01-12T10:12:01.669Z,13.00
2019-01-12T10:14:30.136Z,14.70
2019-01-12T10:16:58.575Z,14.73
2019-01-12T10:19:27.040Z,13.97
2019-01-12T10:21:55.805Z,13.63
2019-01-12T10:24:24.271Z,14.57
2019-01-12T10:26:58.535Z,13.40
2019-01-12T10:29:23.049Z,13.43
2019-01-12T10:31:51.483Z,11.87
2019-01-12T10:34:20.057Z,12.27
2019-01-12T10:36:48.567Z,13.53
2019-01-12T10:39:18.013Z,12.50
2019-01-12T10:41:46.631Z,11.83
2019-01-12T10:44:15.211Z,11.10
2019-01-12T10:46:43.834Z,11.03
2019-01-12T10:49:15.013Z,11.10
2019-01-12T10:51:43.545Z,10.50
2019-01-12T10:54:12.057Z,10.40
2019-01-12T10:56:40.584Z,9.60
2019-01-12T10:59:09.025Z,9.70
2019-01-12T11:01:37.475Z,9.47
2019-01-12T11:04:05.912Z,9.27
2019-01-12T11:06:35.230Z,10.87
2019-01-12T11:09:05.221Z,10.77
2019-01-12T11:11:33.811Z,10.77
2019-01-12T11:14:02.364Z,10.57
2019-01-12T11:16:30.866Z,11.60
2019-01-12T11:18:59.480Z,9.53
2019-01-12T11:21:28.142Z,9.77
2019-01-12T11:23:56.659Z,9.13
2019-01-12T11:26:25.242Z,11.00
2019-01-12T11:28:53.933Z,9.27
2019-01-12T11:31:22.933Z,10.53
2019-01-12T11:33:51.369Z,10.03
2019-01-12T11:36:19.820Z,9.63
2019-01-12T11:38:48.300Z,9.63
2019-01-12T11:41:16.751Z,9.47
2019-01-12T11:43:45.276Z,9.73
2019-01-12T11:46:13.709Z,9.03
2019-01-12T11:48:43.552Z,9.67
2019-01-12T11:51:12.973Z,10.47
2019-01-12T11:53:41.591Z,11.50
2019-01-12T11:56:10.098Z,11.23
2019-01-12T11:58:38.558Z,10.43
2019-01-12T12:01:07.142Z,10.30
2019-01-12T12:03:35.587Z,9.73
2019-01-12T12:06:04.563Z,9.67
2019-01-12T12:08:33.098Z,9.37
2019-01-12T12:11:01.604Z,10.03
2019-01-12T12:13:30.843Z,9.83
2019-01-12T12:15:59.339Z,9.43
2019-01-12T12:18:27.805Z,9.80
2019-01-12T12:20:56.241Z,10.40
2019-01-12T12:23:24.699Z,9.87
2019-01-12T12:25:53.282Z,10.63
2019-01-12T12:28:21.803Z,9.80
2019-01-12T12:30:50.333Z,9.37
2019-01-12T12:33:18.776Z,8.67
2019-01-12T12:35:47.356Z,10.53
2019-01-12T12:38:15.815Z,9.13
2019-01-12T12:40:44.278Z,8.70
2019-01-12T12:43:12.793Z,8.97
2019-01-12T12:45:41.329Z,9.40
2019-01-12T12:48:09.771Z,9.80
2019-01-12T12:50:38.233Z,9.17
2019-01-12T12:53:06.741Z,8.37
2019-01-12T12:55:35.318Z,8.27
2019-01-12T12:58:04.080Z,8.40
2019-01-12T13:00:32.733Z,7.27
2019-01-12T13:03:01.388Z,7.27
2019-01-12T13:05:30.041Z,7.37
2019-01-12T13:07:58.712Z,6.73
2019-01-12T13:10:28.599Z,6.60
2019-01-12T13:12:57.201Z,6.13
2019-01-12T13:15:25.707Z,6.60
2019-01-12T13:17:54.268Z,7.13
2019-01-12T13:20:22.992Z,8.47
2019-01-12T13:22:51.439Z,7.27
2019-01-12T13:25:20.120Z,7.53
2019-01-12T13:27:48.708Z,7.63
2019-01-12T13:30:19.760Z,7.77
2019-01-12T13:32:48.241Z,7.47
2019-01-12T13:35:16.669Z,7.83
2019-01-12T13:37:45.344Z,8.23
2019-01-12T13:40:17.199Z,6.97
2019-01-12T13:42:45.707Z,7.53
2019-01-12T13:45:16.611Z,7.70
2019-01-12T13:47:45.193Z,6.97
2019-01-12T13:50:16.189Z,7.40
2019-01-12T13:52:44.704Z,8.20
2019-01-12T13:55:14.895Z,7.47
2019-01-12T13:57:47.742Z,7.37
2019-01-12T14:00:17.165Z,7.50
2019-01-12T14:02:46.035Z,5.97
2019-01-12T14:05:14.563Z,7.17
2019-01-12T14:07:43.009Z,7.37
2019-01-12T14:10:17.806Z,6.10
2019-01-12T14:12:46.979Z,6.40
2019-01-12T14:15:19.851Z,6.43
2019-01-12T14:17:48.696Z,6.57
2019-01-12T14:20:20.365Z,6.87
2019-01-12T14:22:48.873Z,6.73
2019-01-12T14:25:17.303Z,6.27
2019-01-12T14:27:45.934Z,4.53
2019-01-12T14:30:17.386Z,6.77
2019-01-12T14:32:45.840Z,6.43
2019-01-12T14:35:16.319Z,5.47
2019-01-12T14:37:44.918Z,6.17
2019-01-12T14:40:16.268Z,6.03
2019-01-12T14:42:45.227Z,6.57
2019-01-12T14:45:16.672Z,6.40
2019-01-12T14:47:45.131Z,7.30
2019-01-12T14:50:13.718Z,5.40
2019-01-12T14:52:42.371Z,6.37
2019-01-12T14:55:14.045Z,7.30
2019-01-12T14:57:42.497Z,5.17
2019-01-12T15:00:14.194Z,6.27
2019-01-12T15:02:42.775Z,7.40
2019-01-12T15:05:13.939Z,8.23
2019-01-12T15:07:42.888Z,9.37
2019-01-12T15:10:14.117Z,7.07
2019-01-12T15:12:42.550Z,6.63
2019-01-12T15:15:13.453Z,7.87
2019-01-12T15:17:41.953Z,9.40
2019-01-12T15:20:13.519Z,7.23
2019-01-12T15:22:43.246Z,7.43
2019-01-12T15:25:12.805Z,7.37
2019-01-12T15:27:41.548Z,7.17
2019-01-12T15:30:15.944Z,8.57
2019-01-12T15:32:44.384Z,8.20
2019-01-12T15:35:13.150Z,8.93
2019-01-12T15:37:41.653Z,7.63
2019-01-12T15:40:13.140Z,9.10
2019-01-12T15:42:41.652Z,8.30
2019-01-12T15:45:13.330Z,8.77
2019-01-12T15:47:41.888Z,8.93
2019-01-12T15:50:13.529Z,9.10
2019-01-12T15:52:41.981Z,7.63
2019-01-12T15:55:10.756Z,9.50
2019-01-12T15:57:39.219Z,9.60
2019-01-12T16:06:50.099Z,10.20
2019-01-12T16:09:21.404Z,8.80
2019-01-12T16:11:50.121Z,9.30
2019-01-12T16:14:19.563Z,9.00
2019-01-12T16:16:49.952Z,9.97
2019-01-12T16:19:18.474Z,8.33
2019-01-12T16:21:46.912Z,8.63
2019-01-12T16:24:15.370Z,8.77
2019-01-12T16:26:43.816Z,9.03
2019-01-12T16:29:12.269Z,9.10
2019-01-12T16:31:40.712Z,9.60
2019-01-12T16:34:09.174Z,9.40
2019-01-12T16:36:37.708Z,10.27
2019-01-12T16:39:08.093Z,11.17
2019-01-12T16:41:36.609Z,11.00
2019-01-12T16:44:05.681Z,10.63
2019-01-12T16:46:34.199Z,13.03
2019-01-12T16:49:02.670Z,10.93
2019-01-12T16:51:31.320Z,12.67
2019-01-12T16:53:59.790Z,10.63
2019-01-12T16:56:28.228Z,7.87
2019-01-12T16:58:56.657Z,5.83
2019-01-12T17:01:25.135Z,6.50
2019-01-12T17:03:53.555Z,6.37
2019-01-12T17:06:22.024Z,4.27
2019-01-12T17:08:50.797Z,3.80
2019-01-12T17:11:19.317Z,3.73
2019-01-12T17:13:47.781Z,3.43
2019-01-12T17:16:16.241Z,3.70
2019-01-12T17:18:44.742Z,3.57
2019-01-12T17:21:13.265Z,2.77
2019-01-12T17:23:41.687Z,3.17
2019-01-12T17:26:10.216Z,3.20
2019-01-12T17:28:38.733Z,2.60
2019-01-12T17:31:07.232Z,3.00
2019-01-12T17:33:35.696Z,4.00
2019-01-12T17:36:04.504Z,3.93
2019-01-12T17:38:32.969Z,4.37
2019-01-12T17:41:01.472Z,4.10
2019-01-12T17:43:29.988Z,4.60
2019-01-12T17:45:58.436Z,3.80
2019-01-12T17:48:26.891Z,5.20
2019-01-12T17:50:55.771Z,5.63
2019-01-12T17:53:24.258Z,6.63
2019-01-12T17:55:52.687Z,7.90
2019-01-12T17:58:21.157Z,8.70
2019-01-12T18:00:53.117Z,9.93
2019-01-12T18:03:21.643Z,12.73
2019-01-12T18:05:50.316Z,13.90
2019-01-12T18:08:19.123Z,15.07
2019-01-12T18:10:47.592Z,16.33
2019-01-12T18:13:16.196Z,17.03
2019-01-12T18:15:44.649Z,16.30
2019-01-12T18:18:13.235Z,16.27
2019-01-12T18:20:41.843Z,15.93
2019-01-12T18:23:10.349Z,14.67
2019-01-12T18:25:38.912Z,16.20
2019-01-12T18:28:07.420Z,17.53
2019-01-12T18:30:36.632Z,16.43
2019-01-12T18:33:05.232Z,17.20
2019-01-12T18:35:33.696Z,18.40
2019-01-12T18:38:02.197Z,17.50
2019-01-12T18:40:30.727Z,16.97
2019-01-12T18:42:59.268Z,14.67
2019-01-12T18:45:27.732Z,17.60
2019-01-12T18:47:56.235Z,15.63
2019-01-12T18:50:26.642Z,14.33
2019-01-12T18:52:55.232Z,14.47
2019-01-12T18:55:24.098Z,15.27
2019-01-12T18:57:52.542Z,15.00
2019-01-12T19:00:23.514Z,15.33
2019-01-12T19:02:52.123Z,14.00
2019-01-12T19:05:20.815Z,13.53
2019-01-12T19:07:49.708Z,13.77
2019-01-12T19:10:18.409Z,13.03
2019-01-12T19:12:46.859Z,13.30
2019-01-12T19:15:20.667Z,12.77
2019-01-12T19:17:49.123Z,12.37
2019-01-12T19:20:17.560Z,11.43
2019-01-12T19:22:46.156Z,13.33
2019-01-12T19:25:15.229Z,12.17
2019-01-12T19:27:43.752Z,11.80
2019-01-12T19:30:15.126Z,13.33
2019-01-12T19:32:43.753Z,14.57
2019-01-12T19:35:12.369Z,13.70
2019-01-12T19:37:40.824Z,14.80
2019-01-12T19:40:11.983Z,15.17
2019-01-12T19:42:40.441Z,10.97
2019-01-12T19:45:11.312Z,13.63
2019-01-12T19:47:39.941Z,13.50
2019-01-12T19:50:11.585Z,13.00
2019-01-12T19:52:40.040Z,13.80
2019-01-12T19:55:08.725Z,12.87
2019-01-12T19:57:37.257Z,14.40
2019-01-12T20:00:08.857Z,12.57
2019-01-12T20:02:37.411Z,16.40
2019-01-12T20:05:07.233Z,15.13
2019-01-12T20:07:35.841Z,17.07
2019-01-12T20:10:07.530Z,16.03
2019-01-12T20:12:36.075Z,14.43
2019-01-12T20:15:07.315Z,12.77
2019-01-12T20:17:35.764Z,15.63
2019-01-12T20:20:07.229Z,16.63
2019-01-12T20:22:35.682Z,17.23
2019-01-12T20:25:06.553Z,18.13
2019-01-12T20:27:34.990Z,16.07
2019-01-12T20:30:05.285Z,18.87
2019-01-12T20:32:48.675Z,18.97
2019-01-12T20:35:20.385Z,18.90
2019-01-12T20:38:00.952Z,18.87
2019-01-12T20:40:32.487Z,18.90
2019-01-12T20:43:09.900Z,17.67
2019-01-12T20:45:59.535Z,18.30
2019-01-12T20:48:34.008Z,18.97
2019-01-12T20:51:08.289Z,19.43
2019-01-12T20:53:51.131Z,19.20
2019-01-12T20:56:39.252Z,20.67
2019-01-12T20:59:16.084Z,18.30
2019-01-12T21:01:56.290Z,20.10
2019-01-12T21:04:27.901Z,18.53
2019-01-12T21:07:17.337Z,17.33
2019-01-12T21:09:54.327Z,17.93
2019-01-12T21:12:32.053Z,17.07
2019-01-12T21:15:02.832Z,17.10
2019-01-12T21:17:31.366Z,18.17
2019-01-12T21:19:59.806Z,16.90
2019-01-12T21:22:28.259Z,17.10
2019-01-12T21:24:56.694Z,17.07
2019-01-12T21:27:25.227Z,15.37
2019-01-12T21:29:53.752Z,15.93
2019-01-12T21:32:22.287Z,16.70
2019-01-12T21:34:50.736Z,16.33
2019-01-12T21:37:19.191Z,19.20
2019-01-12T21:39:47.645Z,17.00
2019-01-12T21:42:16.112Z,15.07
2019-01-12T21:44:44.567Z,16.40
2019-01-12T21:47:13.002Z,14.27
2019-01-12T21:49:41.469Z,16.13
2019-01-12T21:52:09.977Z,14.80
2019-01-12T21:54:38.433Z,15.43
2019-01-12T21:57:06.943Z,16.27
2019-01-12T21:59:42.242Z,16.50
2019-01-12T22:02:05.797Z,15.43
2019-01-12T22:04:34.345Z,15.20
2019-01-12T22:07:02.802Z,15.40
2019-01-12T22:09:31.277Z,15.93
2019-01-12T22:11:59.821Z,17.10
2019-01-12T22:14:28.348Z,17.77
2019-01-12T22:16:56.872Z,16.50
2019-01-12T22:19:25.342Z,18.43
2019-01-12T22:21:53.912Z,18.47
2019-01-12T22:24:22.474Z,18.27
2019-01-12T22:26:50.929Z,16.97
2019-01-12T22:29:19.536Z,18.47
2019-01-12T22:31:47.996Z,18.40
2019-01-12T22:34:16.537Z,17.70
2019-01-12T22:36:45.051Z,16.60
2019-01-12T22:39:13.616Z,19.43
2019-01-12T22:41:42.112Z,18.07
2019-01-12T22:44:10.574Z,19.53
2019-01-12T22:46:39.008Z,20.03
2019-01-12T22:49:07.532Z,19.27
2019-01-12T22:51:36.057Z,20.97
2019-01-12T22:54:05.165Z,17.27
2019-01-12T22:56:33.703Z,19.33
2019-01-12T22:59:02.237Z,18.60
2019-01-12T23:01:37.877Z,17.30
2019-01-12T23:04:06.608Z,18.67
2019-01-12T23:06:35.074Z,19.13
2019-01-12T23:09:05.092Z,19.53
2019-01-12T23:11:33.635Z,18.93
2019-01-12T23:14:02.221Z,19.17
2019-01-12T23:16:30.675Z,18.70
2019-01-12T23:18:59.108Z,18.73
2019-01-12T23:21:27.641Z,18.13
2019-01-12T23:23:56.175Z,20.20
2019-01-12T23:26:24.716Z,19.03
2019-01-12T23:28:53.165Z,19.07
2019-01-12T23:31:21.620Z,19.80
2019-01-12T23:33:50.132Z,18.93
2019-01-12T23:36:18.609Z,17.87
2019-01-12T23:38:47.048Z,19.03
2019-01-12T23:41:15.496Z,20.77
2019-01-12T23:43:43.965Z,18.67
2019-01-12T23:46:12.395Z,18.50
2019-01-12T23:48:40.872Z,20.17
2019-01-12T23:51:09.381Z,18.00
2019-01-12T23:53:37.860Z,19.47
2019-01-12T23:56:06.452Z,18.17
2019-01-12T23:58:34.919Z,18.03
